sensor_id;sensor_type;location;lat;lon;timestamp;temperature;humidity
1083;DHT22;530;51.448;7.238;2022-08-07T00:01:26;14.40;99.90
1083;DHT22;530;51.448;7.238;2022-08-07T00:03:52;14.40;99.90
1083;DHT22;530;51.448;7.238;2022-08-07T00:06:17;14.40;99.90
1083;DHT22;530;51.448;7.238;2022-08-07T00:08:43;14.30;99.90
1083;DHT22;530;51.448;7.238;2022-08-07T00:11:09;14.30;99.90
1083;DHT22;530;51.448;7.238;2022-08-07T00:13:35;14.30;99.90
1083;DHT22;530;51.448;7.238;2022-08-07T00:16:04;14.20;99.90
1083;DHT22;530;51.448;7.238;2022-08-07T00:18:30;14.20;99.90
1083;DHT22;530;51.448;7.238;2022-08-07T00:20:59;14.20;99.90
1083;DHT22;530;51.448;7.238;2022-08-07T00:23:25;14.20;99.90
1083;DHT22;530;51.448;7.238;2022-08-07T00:25:51;14.20;99.90
1083;DHT22;530;51.448;7.238;2022-08-07T00:28:17;14.20;99.90
1083;DHT22;530;51.448;7.238;2022-08-07T00:30:43;14.10;99.90
1083;DHT22;530;51.448;7.238;2022-08-07T00:33:09;14.10;99.90
1083;DHT22;530;51.448;7.238;2022-08-07T00:35:35;14.10;99.90
1083;DHT22;530;51.448;7.238;2022-08-07T00:38:00;14.10;99.90
1083;DHT22;530;51.448;7.238;2022-08-07T00:40:27;14.00;99.90
1083;DHT22;530;51.448;7.238;2022-08-07T00:42:53;14.00;99.90
1083;DHT22;530;51.448;7.238;2022-08-07T00:45:19;14.00;99.90
1083;DHT22;530;51.448;7.238;2022-08-07T00:47:46;14.00;99.90
1083;DHT22;530;51.448;7.238;2022-08-07T00:50:12;14.00;99.90
1083;DHT22;530;51.448;7.238;2022-08-07T00:52:38;13.90;99.90
1083;DHT22;530;51.448;7.238;2022-08-07T00:55:04;13.90;99.90
1083;DHT22;530;51.448;7.238;2022-08-07T00:57:31;13.80;99.90
1083;DHT22;530;51.448;7.238;2022-08-07T00:59:56;13.80;99.90
1083;DHT22;530;51.448;7.238;2022-08-07T01:02:23;13.70;99.90
1083;DHT22;530;51.448;7.238;2022-08-07T01:04:50;13.70;99.90
1083;DHT22;530;51.448;7.238;2022-08-07T01:07:15;13.70;99.90
1083;DHT22;530;51.448;7.238;2022-08-07T01:09:43;13.70;99.90
1083;DHT22;530;51.448;7.238;2022-08-07T01:12:09;13.70;99.90
1083;DHT22;530;51.448;7.238;2022-08-07T01:14:36;13.70;99.90
1083;DHT22;530;51.448;7.238;2022-08-07T01:17:02;13.70;99.90
1083;DHT22;530;51.448;7.238;2022-08-07T01:19:28;13.60;99.90
1083;DHT22;530;51.448;7.238;2022-08-07T01:21:55;13.60;99.90
1083;DHT22;530;51.448;7.238;2022-08-07T01:24:21;13.60;99.90
1083;DHT22;530;51.448;7.238;2022-08-07T01:26:48;13.60;99.90
1083;DHT22;530;51.448;7.238;2022-08-07T01:29:14;13.50;99.90
1083;DHT22;530;51.448;7.238;2022-08-07T01:31:40;13.50;99.90
1083;DHT22;530;51.448;7.238;2022-08-07T01:34:06;13.40;99.90
1083;DHT22;530;51.448;7.238;2022-08-07T01:36:32;13.30;99.90
1083;DHT22;530;51.448;7.238;2022-08-07T01:38:58;13.30;99.90
1083;DHT22;530;51.448;7.238;2022-08-07T01:41:24;13.30;99.90
1083;DHT22;530;51.448;7.238;2022-08-07T01:43:51;13.20;99.90
1083;DHT22;530;51.448;7.238;2022-08-07T01:46:18;13.20;99.90
1083;DHT22;530;51.448;7.238;2022-08-07T01:48:45;13.20;99.90
1083;DHT22;530;51.448;7.238;2022-08-07T01:51:20;13.10;99.90
1083;DHT22;530;51.448;7.238;2022-08-07T01:53:49;13.20;99.90
1083;DHT22;530;51.448;7.238;2022-08-07T01:56:24;13.10;99.90
1083;DHT22;530;51.448;7.238;2022-08-07T01:59:00;13.10;99.90
1083;DHT22;530;51.448;7.238;2022-08-07T02:01:32;13.10;99.90
1083;DHT22;530;51.448;7.238;2022-08-07T02:04:08;13.00;99.90
1083;DHT22;530;51.448;7.238;2022-08-07T02:06:37;13.00;99.90
1083;DHT22;530;51.448;7.238;2022-08-07T02:09:05;13.00;99.90
1083;DHT22;530;51.448;7.238;2022-08-07T02:11:35;13.00;99.90
1083;DHT22;530;51.448;7.238;2022-08-07T02:14:02;13.00;99.90
1083;DHT22;530;51.448;7.238;2022-08-07T02:16:29;13.00;99.90
1083;DHT22;530;51.448;7.238;2022-08-07T02:18:56;12.90;99.90
1083;DHT22;530;51.448;7.238;2022-08-07T02:21:22;12.90;99.90
1083;DHT22;530;51.448;7.238;2022-08-07T02:23:49;12.90;99.90
1083;DHT22;530;51.448;7.238;2022-08-07T02:26:16;12.80;99.90
1083;DHT22;530;51.448;7.238;2022-08-07T02:28:43;12.80;99.90
1083;DHT22;530;51.448;7.238;2022-08-07T02:31:10;12.80;99.90
1083;DHT22;530;51.448;7.238;2022-08-07T02:33:37;12.80;99.90
1083;DHT22;530;51.448;7.238;2022-08-07T02:36:04;12.90;99.90
1083;DHT22;530;51.448;7.238;2022-08-07T02:38:34;12.80;99.90
1083;DHT22;530;51.448;7.238;2022-08-07T02:41:00;12.80;99.90
1083;DHT22;530;51.448;7.238;2022-08-07T02:43:27;12.80;99.90
1083;DHT22;530;51.448;7.238;2022-08-07T02:45:56;12.90;99.90
1083;DHT22;530;51.448;7.238;2022-08-07T02:48:23;12.80;99.90
1083;DHT22;530;51.448;7.238;2022-08-07T02:50:51;12.90;99.90
1083;DHT22;530;51.448;7.238;2022-08-07T02:53:29;13.00;99.90
1083;DHT22;530;51.448;7.238;2022-08-07T02:55:56;12.90;99.90
1083;DHT22;530;51.448;7.238;2022-08-07T02:58:23;12.90;99.90
1083;DHT22;530;51.448;7.238;2022-08-07T03:00:54;12.90;99.90
1083;DHT22;530;51.448;7.238;2022-08-07T03:03:22;12.90;99.90
1083;DHT22;530;51.448;7.238;2022-08-07T03:05:53;12.90;99.90
1083;DHT22;530;51.448;7.238;2022-08-07T03:08:20;12.90;99.90
1083;DHT22;530;51.448;7.238;2022-08-07T03:10:46;13.00;99.90
1083;DHT22;530;51.448;7.238;2022-08-07T03:13:16;13.00;99.90
1083;DHT22;530;51.448;7.238;2022-08-07T03:15:42;13.00;99.90
1083;DHT22;530;51.448;7.238;2022-08-07T03:18:08;13.00;99.90
1083;DHT22;530;51.448;7.238;2022-08-07T03:20:35;12.90;99.90
1083;DHT22;530;51.448;7.238;2022-08-07T03:23:01;12.90;99.90
1083;DHT22;530;51.448;7.238;2022-08-07T03:25:28;12.80;99.90
1083;DHT22;530;51.448;7.238;2022-08-07T03:27:56;12.80;99.90
1083;DHT22;530;51.448;7.238;2022-08-07T03:30:24;12.70;99.90
1083;DHT22;530;51.448;7.238;2022-08-07T03:32:51;12.70;99.90
1083;DHT22;530;51.448;7.238;2022-08-07T03:35:22;12.70;99.90
1083;DHT22;530;51.448;7.238;2022-08-07T03:38:07;12.80;99.90
1083;DHT22;530;51.448;7.238;2022-08-07T03:40:33;12.80;99.90
1083;DHT22;530;51.448;7.238;2022-08-07T03:43:00;12.80;99.90
1083;DHT22;530;51.448;7.238;2022-08-07T03:45:27;12.80;99.90
1083;DHT22;530;51.448;7.238;2022-08-07T03:47:55;12.80;99.90
1083;DHT22;530;51.448;7.238;2022-08-07T03:50:22;12.80;99.90
1083;DHT22;530;51.448;7.238;2022-08-07T03:52:51;12.80;99.90
1083;DHT22;530;51.448;7.238;2022-08-07T03:55:17;12.80;99.90
1083;DHT22;530;51.448;7.238;2022-08-07T03:57:44;12.80;99.90
1083;DHT22;530;51.448;7.238;2022-08-07T04:00:12;12.80;99.90
1083;DHT22;530;51.448;7.238;2022-08-07T04:02:38;12.80;99.90
1083;DHT22;530;51.448;7.238;2022-08-07T04:05:07;12.80;99.90
1083;DHT22;530;51.448;7.238;2022-08-07T04:07:34;12.80;99.90
1083;DHT22;530;51.448;7.238;2022-08-07T04:10:00;12.80;99.90
1083;DHT22;530;51.448;7.238;2022-08-07T04:12:28;12.80;99.90
1083;DHT22;530;51.448;7.238;2022-08-07T04:14:56;12.90;99.90
1083;DHT22;530;51.448;7.238;2022-08-07T04:17:22;12.90;99.90
1083;DHT22;530;51.448;7.238;2022-08-07T04:19:51;12.90;99.90
1083;DHT22;530;51.448;7.238;2022-08-07T04:22:17;12.90;99.90
1083;DHT22;530;51.448;7.238;2022-08-07T04:24:44;13.00;99.90
1083;DHT22;530;51.448;7.238;2022-08-07T04:27:10;13.00;99.90
1083;DHT22;530;51.448;7.238;2022-08-07T04:29:36;13.00;99.90
1083;DHT22;530;51.448;7.238;2022-08-07T04:32:01;13.00;99.90
1083;DHT22;530;51.448;7.238;2022-08-07T04:34:28;13.10;99.90
1083;DHT22;530;51.448;7.238;2022-08-07T04:36:54;13.10;99.90
1083;DHT22;530;51.448;7.238;2022-08-07T04:39:20;13.10;99.90
1083;DHT22;530;51.448;7.238;2022-08-07T04:41:46;13.10;99.90
1083;DHT22;530;51.448;7.238;2022-08-07T04:44:12;13.20;99.90
1083;DHT22;530;51.448;7.238;2022-08-07T04:46:43;13.10;99.90
1083;DHT22;530;51.448;7.238;2022-08-07T04:49:37;13.10;99.90
1083;DHT22;530;51.448;7.238;2022-08-07T04:52:22;13.10;99.90
1083;DHT22;530;51.448;7.238;2022-08-07T04:54:56;13.10;99.90
1083;DHT22;530;51.448;7.238;2022-08-07T04:57:55;13.10;99.90
1083;DHT22;530;51.448;7.238;2022-08-07T05:03:49;13.20;99.90
1083;DHT22;530;51.448;7.238;2022-08-07T05:06:34;13.30;99.90
1083;DHT22;530;51.448;7.238;2022-08-07T05:09:06;13.30;99.90
1083;DHT22;530;51.448;7.238;2022-08-07T05:11:39;13.30;99.90
1083;DHT22;530;51.448;7.238;2022-08-07T05:14:14;13.40;99.90
1083;DHT22;530;51.448;7.238;2022-08-07T05:16:42;13.40;99.90
1083;DHT22;530;51.448;7.238;2022-08-07T05:19:19;13.50;99.90
1083;DHT22;530;51.448;7.238;2022-08-07T05:21:52;13.50;99.90
1083;DHT22;530;51.448;7.238;2022-08-07T05:24:20;13.60;99.90
1083;DHT22;530;51.448;7.238;2022-08-07T05:26:49;13.60;99.90
1083;DHT22;530;51.448;7.238;2022-08-07T05:29:18;13.70;99.90
1083;DHT22;530;51.448;7.238;2022-08-07T05:31:45;13.70;99.90
1083;DHT22;530;51.448;7.238;2022-08-07T05:34:15;13.80;99.90
1083;DHT22;530;51.448;7.238;2022-08-07T05:36:43;13.80;99.90
1083;DHT22;530;51.448;7.238;2022-08-07T05:39:10;13.90;99.90
1083;DHT22;530;51.448;7.238;2022-08-07T05:41:38;14.00;99.90
1083;DHT22;530;51.448;7.238;2022-08-07T05:44:04;14.00;99.90
1083;DHT22;530;51.448;7.238;2022-08-07T05:46:30;14.10;99.90
1083;DHT22;530;51.448;7.238;2022-08-07T05:48:57;14.20;99.90
1083;DHT22;530;51.448;7.238;2022-08-07T05:51:23;14.20;99.90
1083;DHT22;530;51.448;7.238;2022-08-07T05:53:49;14.30;99.90
1083;DHT22;530;51.448;7.238;2022-08-07T05:56:17;14.40;99.90
1083;DHT22;530;51.448;7.238;2022-08-07T05:58:43;14.60;99.90
1083;DHT22;530;51.448;7.238;2022-08-07T06:01:12;14.80;99.90
1083;DHT22;530;51.448;7.238;2022-08-07T06:03:42;15.00;99.90
1083;DHT22;530;51.448;7.238;2022-08-07T06:06:10;15.20;99.90
1083;DHT22;530;51.448;7.238;2022-08-07T06:08:39;15.40;99.90
1083;DHT22;530;51.448;7.238;2022-08-07T06:11:05;15.60;99.90
1083;DHT22;530;51.448;7.238;2022-08-07T06:13:31;15.80;99.90
1083;DHT22;530;51.448;7.238;2022-08-07T06:15:58;16.10;99.90
1083;DHT22;530;51.448;7.238;2022-08-07T06:18:25;16.30;99.90
1083;DHT22;530;51.448;7.238;2022-08-07T06:20:52;16.40;99.90
1083;DHT22;530;51.448;7.238;2022-08-07T06:23:18;16.60;99.90
1083;DHT22;530;51.448;7.238;2022-08-07T06:25:44;16.70;99.90
1083;DHT22;530;51.448;7.238;2022-08-07T06:28:10;16.80;99.90
1083;DHT22;530;51.448;7.238;2022-08-07T06:30:37;17.00;99.90
1083;DHT22;530;51.448;7.238;2022-08-07T06:33:04;17.20;99.90
1083;DHT22;530;51.448;7.238;2022-08-07T06:35:31;17.30;99.90
1083;DHT22;530;51.448;7.238;2022-08-07T06:37:57;17.40;99.90
1083;DHT22;530;51.448;7.238;2022-08-07T06:40:23;17.60;99.90
1083;DHT22;530;51.448;7.238;2022-08-07T06:42:50;17.70;99.90
1083;DHT22;530;51.448;7.238;2022-08-07T06:45:19;17.90;99.90
1083;DHT22;530;51.448;7.238;2022-08-07T06:47:45;18.00;99.90
1083;DHT22;530;51.448;7.238;2022-08-07T06:50:12;18.20;99.90
1083;DHT22;530;51.448;7.238;2022-08-07T06:52:41;18.30;99.90
1083;DHT22;530;51.448;7.238;2022-08-07T06:55:22;18.50;99.90
1083;DHT22;530;51.448;7.238;2022-08-07T06:57:49;18.60;99.90
1083;DHT22;530;51.448;7.238;2022-08-07T07:00:17;18.70;99.90
1083;DHT22;530;51.448;7.238;2022-08-07T07:02:44;18.90;99.90
1083;DHT22;530;51.448;7.238;2022-08-07T07:05:11;19.00;99.90
1083;DHT22;530;51.448;7.238;2022-08-07T07:07:37;19.20;99.90
1083;DHT22;530;51.448;7.238;2022-08-07T07:10:03;19.10;99.90
1083;DHT22;530;51.448;7.238;2022-08-07T07:12:38;19.20;99.90
1083;DHT22;530;51.448;7.238;2022-08-07T07:15:13;19.20;99.90
1083;DHT22;530;51.448;7.238;2022-08-07T07:18:05;19.20;99.90
1083;DHT22;530;51.448;7.238;2022-08-07T07:20:43;19.30;99.90
1083;DHT22;530;51.448;7.238;2022-08-07T07:23:12;19.20;99.90
1083;DHT22;530;51.448;7.238;2022-08-07T07:25:38;19.30;99.90
1083;DHT22;530;51.448;7.238;2022-08-07T07:28:15;19.30;99.90
1083;DHT22;530;51.448;7.238;2022-08-07T07:30:49;19.30;99.90
1083;DHT22;530;51.448;7.238;2022-08-07T07:33:17;19.40;99.50
1083;DHT22;530;51.448;7.238;2022-08-07T07:35:47;19.50;99.90
1083;DHT22;530;51.448;7.238;2022-08-07T07:38:14;19.70;99.70
1083;DHT22;530;51.448;7.238;2022-08-07T07:40:44;19.80;99.90
1083;DHT22;530;51.448;7.238;2022-08-07T07:43:11;19.90;99.70
1083;DHT22;530;51.448;7.238;2022-08-07T07:45:39;19.90;98.90
1083;DHT22;530;51.448;7.238;2022-08-07T07:48:06;19.90;99.00
1083;DHT22;530;51.448;7.238;2022-08-07T07:50:35;19.80;99.30
1083;DHT22;530;51.448;7.238;2022-08-07T07:53:01;19.80;99.90
1083;DHT22;530;51.448;7.238;2022-08-07T07:55:28;19.90;99.90
1083;DHT22;530;51.448;7.238;2022-08-07T07:57:55;19.80;99.90
1083;DHT22;530;51.448;7.238;2022-08-07T08:00:24;19.80;99.90
1083;DHT22;530;51.448;7.238;2022-08-07T08:02:56;19.80;99.80
1083;DHT22;530;51.448;7.238;2022-08-07T08:05:22;19.90;99.90
1083;DHT22;530;51.448;7.238;2022-08-07T08:07:49;19.80;99.80
1083;DHT22;530;51.448;7.238;2022-08-07T08:10:16;19.90;99.80
1083;DHT22;530;51.448;7.238;2022-08-07T08:12:45;19.80;99.70
1083;DHT22;530;51.448;7.238;2022-08-07T08:15:11;19.80;99.90
1083;DHT22;530;51.448;7.238;2022-08-07T08:17:39;19.80;99.70
1083;DHT22;530;51.448;7.238;2022-08-07T08:20:07;19.90;99.90
1083;DHT22;530;51.448;7.238;2022-08-07T08:22:37;20.00;99.60
1083;DHT22;530;51.448;7.238;2022-08-07T08:25:23;20.10;98.70
1083;DHT22;530;51.448;7.238;2022-08-07T08:28:11;20.10;98.90
1083;DHT22;530;51.448;7.238;2022-08-07T08:30:38;20.20;97.60
1083;DHT22;530;51.448;7.238;2022-08-07T08:33:06;20.20;97.50
1083;DHT22;530;51.448;7.238;2022-08-07T08:35:33;20.20;98.20
1083;DHT22;530;51.448;7.238;2022-08-07T08:38:01;20.20;98.50
1083;DHT22;530;51.448;7.238;2022-08-07T08:40:34;20.20;98.70
1083;DHT22;530;51.448;7.238;2022-08-07T08:43:15;20.20;98.20
1083;DHT22;530;51.448;7.238;2022-08-07T08:46:08;20.20;97.30
1083;DHT22;530;51.448;7.238;2022-08-07T08:48:50;20.30;96.80
1083;DHT22;530;51.448;7.238;2022-08-07T08:56:40;20.40;94.30
1083;DHT22;530;51.448;7.238;2022-08-07T09:05:23;20.60;93.10
1083;DHT22;530;51.448;7.238;2022-08-07T09:08:14;20.70;93.60
1083;DHT22;530;51.448;7.238;2022-08-07T09:13:53;20.90;91.90
1083;DHT22;530;51.448;7.238;2022-08-07T09:16:38;20.90;92.00
1083;DHT22;530;51.448;7.238;2022-08-07T09:19:16;21.00;91.90
1083;DHT22;530;51.448;7.238;2022-08-07T09:21:46;21.20;91.20
1083;DHT22;530;51.448;7.238;2022-08-07T09:30:04;21.50;91.60
1083;DHT22;530;51.448;7.238;2022-08-07T09:32:49;21.70;91.40
1083;DHT22;530;51.448;7.238;2022-08-07T09:54:58;22.70;87.50
1083;DHT22;530;51.448;7.238;2022-08-07T09:57:43;22.80;84.10
1083;DHT22;530;51.448;7.238;2022-08-07T10:00:16;22.90;78.90
1083;DHT22;530;51.448;7.238;2022-08-07T10:03:12;23.00;83.20
1083;DHT22;530;51.448;7.238;2022-08-07T10:06:45;23.10;80.10
1083;DHT22;530;51.448;7.238;2022-08-07T10:09:08;23.10;81.30
1083;DHT22;530;51.448;7.238;2022-08-07T10:17:31;23.40;79.30
1083;DHT22;530;51.448;7.238;2022-08-07T10:25:19;23.50;78.90
1083;DHT22;530;51.448;7.238;2022-08-07T10:27:55;23.50;75.10
1083;DHT22;530;51.448;7.238;2022-08-07T10:33:29;23.50;74.90
1083;DHT22;530;51.448;7.238;2022-08-07T10:38:58;23.50;72.20
1083;DHT22;530;51.448;7.238;2022-08-07T10:41:35;23.60;73.40
1083;DHT22;530;51.448;7.238;2022-08-07T10:46:31;23.60;68.80
1083;DHT22;530;51.448;7.238;2022-08-07T10:49:21;23.70;70.40
1083;DHT22;530;51.448;7.238;2022-08-07T10:52:24;23.60;70.20
1083;DHT22;530;51.448;7.238;2022-08-07T10:55:14;23.70;73.70
1083;DHT22;530;51.448;7.238;2022-08-07T11:00:32;24.00;72.20
1083;DHT22;530;51.448;7.238;2022-08-07T11:03:16;24.00;69.80
1083;DHT22;530;51.448;7.238;2022-08-07T11:08:40;24.20;70.50
1083;DHT22;530;51.448;7.238;2022-08-07T11:11:14;24.30;75.70
1083;DHT22;530;51.448;7.238;2022-08-07T11:14:37;24.40;68.30
1083;DHT22;530;51.448;7.238;2022-08-07T11:16:53;24.40;67.20
1083;DHT22;530;51.448;7.238;2022-08-07T11:19:39;24.20;67.70
1083;DHT22;530;51.448;7.238;2022-08-07T11:22:14;24.20;69.20
1083;DHT22;530;51.448;7.238;2022-08-07T11:27:25;24.40;67.30
1083;DHT22;530;51.448;7.238;2022-08-07T11:30:18;24.50;69.20
1083;DHT22;530;51.448;7.238;2022-08-07T11:32:59;24.50;73.60
1083;DHT22;530;51.448;7.238;2022-08-07T11:35:45;24.60;72.50
1083;DHT22;530;51.448;7.238;2022-08-07T11:38:30;24.60;68.10
1083;DHT22;530;51.448;7.238;2022-08-07T11:41:10;24.60;69.70
1083;DHT22;530;51.448;7.238;2022-08-07T11:43:56;24.70;65.20
1083;DHT22;530;51.448;7.238;2022-08-07T11:52:49;25.00;72.80
1083;DHT22;530;51.448;7.238;2022-08-07T11:58:28;25.10;69.70
1083;DHT22;530;51.448;7.238;2022-08-07T12:01:00;25.20;73.60
1083;DHT22;530;51.448;7.238;2022-08-07T12:09:08;25.10;66.50
1083;DHT22;530;51.448;7.238;2022-08-07T12:11:41;25.00;64.60
1083;DHT22;530;51.448;7.238;2022-08-07T12:14:20;25.00;64.00
1083;DHT22;530;51.448;7.238;2022-08-07T12:16:55;24.90;63.20
1083;DHT22;530;51.448;7.238;2022-08-07T12:19:56;24.90;67.70
1083;DHT22;530;51.448;7.238;2022-08-07T12:22:31;25.00;67.90
1083;DHT22;530;51.448;7.238;2022-08-07T12:25:10;25.00;68.90
1083;DHT22;530;51.448;7.238;2022-08-07T12:28:03;25.20;69.90
1083;DHT22;530;51.448;7.238;2022-08-07T12:30:36;25.20;67.70
1083;DHT22;530;51.448;7.238;2022-08-07T12:33:09;25.30;66.20
1083;DHT22;530;51.448;7.238;2022-08-07T12:35:39;25.30;67.40
1083;DHT22;530;51.448;7.238;2022-08-07T12:38:06;25.40;70.70
1083;DHT22;530;51.448;7.238;2022-08-07T12:40:33;25.40;69.30
1083;DHT22;530;51.448;7.238;2022-08-07T12:43:02;25.40;65.80
1083;DHT22;530;51.448;7.238;2022-08-07T12:48:46;25.20;61.60
1083;DHT22;530;51.448;7.238;2022-08-07T12:51:18;25.00;60.10
1083;DHT22;530;51.448;7.238;2022-08-07T12:53:57;25.00;59.00
1083;DHT22;530;51.448;7.238;2022-08-07T12:56:30;25.10;60.00
1083;DHT22;530;51.448;7.238;2022-08-07T12:58:57;25.20;63.70
1083;DHT22;530;51.448;7.238;2022-08-07T13:04:20;25.30;59.40
1083;DHT22;530;51.448;7.238;2022-08-07T13:17:54;25.50;58.40
1083;DHT22;530;51.448;7.238;2022-08-07T13:20:43;25.60;63.90
1083;DHT22;530;51.448;7.238;2022-08-07T13:23:28;25.60;62.40
1083;DHT22;530;51.448;7.238;2022-08-07T13:26:30;25.70;62.50
1083;DHT22;530;51.448;7.238;2022-08-07T13:29:10;25.80;62.30
1083;DHT22;530;51.448;7.238;2022-08-07T13:32:02;25.80;64.80
1083;DHT22;530;51.448;7.238;2022-08-07T13:37:47;25.80;59.50
1083;DHT22;530;51.448;7.238;2022-08-07T13:40:42;25.90;59.90
1083;DHT22;530;51.448;7.238;2022-08-07T13:43:13;25.90;59.70
1083;DHT22;530;51.448;7.238;2022-08-07T13:45:43;25.90;60.40
1083;DHT22;530;51.448;7.238;2022-08-07T13:48:10;25.90;58.40
1083;DHT22;530;51.448;7.238;2022-08-07T13:50:40;25.90;58.20
1083;DHT22;530;51.448;7.238;2022-08-07T13:53:07;25.90;59.90
1083;DHT22;530;51.448;7.238;2022-08-07T13:55:34;25.90;58.80
1083;DHT22;530;51.448;7.238;2022-08-07T13:58:07;25.80;58.90
1083;DHT22;530;51.448;7.238;2022-08-07T14:00:52;25.70;58.10
1083;DHT22;530;51.448;7.238;2022-08-07T14:03:20;25.70;56.40
1083;DHT22;530;51.448;7.238;2022-08-07T14:05:50;25.70;55.50
1083;DHT22;530;51.448;7.238;2022-08-07T14:08:23;25.70;58.70
1083;DHT22;530;51.448;7.238;2022-08-07T14:10:50;25.60;55.80
1083;DHT22;530;51.448;7.238;2022-08-07T14:13:27;25.50;56.90
1083;DHT22;530;51.448;7.238;2022-08-07T14:16:01;25.50;57.40
1083;DHT22;530;51.448;7.238;2022-08-07T14:18:37;25.60;60.40
1083;DHT22;530;51.448;7.238;2022-08-07T14:21:08;25.60;59.50
1083;DHT22;530;51.448;7.238;2022-08-07T14:23:36;25.70;58.70
1083;DHT22;530;51.448;7.238;2022-08-07T14:26:14;25.70;55.90
1083;DHT22;530;51.448;7.238;2022-08-07T14:28:43;25.70;53.40
1083;DHT22;530;51.448;7.238;2022-08-07T14:31:11;25.50;54.00
1083;DHT22;530;51.448;7.238;2022-08-07T14:33:39;25.50;56.00
1083;DHT22;530;51.448;7.238;2022-08-07T14:36:07;25.70;56.60
1083;DHT22;530;51.448;7.238;2022-08-07T14:38:34;25.70;56.70
1083;DHT22;530;51.448;7.238;2022-08-07T14:41:06;25.80;57.20
1083;DHT22;530;51.448;7.238;2022-08-07T14:43:33;25.80;58.30
1083;DHT22;530;51.448;7.238;2022-08-07T14:46:03;25.80;58.50
1083;DHT22;530;51.448;7.238;2022-08-07T14:48:32;25.90;58.70
1083;DHT22;530;51.448;7.238;2022-08-07T14:51:04;25.80;55.40
1083;DHT22;530;51.448;7.238;2022-08-07T14:53:40;25.70;56.30
1083;DHT22;530;51.448;7.238;2022-08-07T14:56:08;25.60;55.40
1083;DHT22;530;51.448;7.238;2022-08-07T14:58:37;25.50;55.20
1083;DHT22;530;51.448;7.238;2022-08-07T15:01:05;25.60;57.80
1083;DHT22;530;51.448;7.238;2022-08-07T15:03:31;25.60;59.10
1083;DHT22;530;51.448;7.238;2022-08-07T15:05:59;25.60;57.90
1083;DHT22;530;51.448;7.238;2022-08-07T15:08:29;25.60;59.50
1083;DHT22;530;51.448;7.238;2022-08-07T15:11:17;25.60;56.80
1083;DHT22;530;51.448;7.238;2022-08-07T15:13:53;25.60;56.50
1083;DHT22;530;51.448;7.238;2022-08-07T15:16:37;25.60;56.00
1083;DHT22;530;51.448;7.238;2022-08-07T15:19:09;25.60;55.90
1083;DHT22;530;51.448;7.238;2022-08-07T15:21:37;25.60;57.80
1083;DHT22;530;51.448;7.238;2022-08-07T15:24:11;25.50;57.70
1083;DHT22;530;51.448;7.238;2022-08-07T15:26:48;25.50;56.70
1083;DHT22;530;51.448;7.238;2022-08-07T15:29:17;25.50;56.30
1083;DHT22;530;51.448;7.238;2022-08-07T15:31:47;25.50;57.40
1083;DHT22;530;51.448;7.238;2022-08-07T15:34:14;25.50;55.00
1083;DHT22;530;51.448;7.238;2022-08-07T15:36:41;25.50;54.50
1083;DHT22;530;51.448;7.238;2022-08-07T15:39:08;25.50;56.20
1083;DHT22;530;51.448;7.238;2022-08-07T15:42:02;25.40;57.70
1083;DHT22;530;51.448;7.238;2022-08-07T15:44:29;25.50;57.90
1083;DHT22;530;51.448;7.238;2022-08-07T15:47:07;25.40;57.70
1083;DHT22;530;51.448;7.238;2022-08-07T15:49:35;25.40;58.00
1083;DHT22;530;51.448;7.238;2022-08-07T15:52:02;25.40;56.20
1083;DHT22;530;51.448;7.238;2022-08-07T15:54:33;25.40;54.80
1083;DHT22;530;51.448;7.238;2022-08-07T15:57:02;25.30;57.10
1083;DHT22;530;51.448;7.238;2022-08-07T15:59:30;25.20;57.20
1083;DHT22;530;51.448;7.238;2022-08-07T16:01:58;25.20;57.80
1083;DHT22;530;51.448;7.238;2022-08-07T16:04:31;25.20;56.40
1083;DHT22;530;51.448;7.238;2022-08-07T16:07:00;25.10;55.70
1083;DHT22;530;51.448;7.238;2022-08-07T16:20:52;25.00;56.50
1083;DHT22;530;51.448;7.238;2022-08-07T16:26:09;24.70;56.30
1083;DHT22;530;51.448;7.238;2022-08-07T16:34:01;24.80;56.90
1083;DHT22;530;51.448;7.238;2022-08-07T16:36:47;24.80;58.10
1083;DHT22;530;51.448;7.238;2022-08-07T16:42:22;24.80;58.90
1083;DHT22;530;51.448;7.238;2022-08-07T16:51:17;24.70;59.10
1083;DHT22;530;51.448;7.238;2022-08-07T16:54:05;24.60;57.90
1083;DHT22;530;51.448;7.238;2022-08-07T16:59:54;24.50;58.80
1083;DHT22;530;51.448;7.238;2022-08-07T17:07:56;24.40;61.60
1083;DHT22;530;51.448;7.238;2022-08-07T17:13:41;24.30;61.30
1083;DHT22;530;51.448;7.238;2022-08-07T17:21:23;24.10;62.00
1083;DHT22;530;51.448;7.238;2022-08-07T17:38:10;23.90;61.70
1083;DHT22;530;51.448;7.238;2022-08-07T17:41:14;23.90;62.60
1083;DHT22;530;51.448;7.238;2022-08-07T17:43:47;23.80;62.40
1083;DHT22;530;51.448;7.238;2022-08-07T17:46:38;23.80;62.00
1083;DHT22;530;51.448;7.238;2022-08-07T17:49:13;23.70;62.90
1083;DHT22;530;51.448;7.238;2022-08-07T17:52:00;23.70;62.50
1083;DHT22;530;51.448;7.238;2022-08-07T17:54:46;23.70;61.70
1083;DHT22;530;51.448;7.238;2022-08-07T17:57:28;23.70;62.30
1083;DHT22;530;51.448;7.238;2022-08-07T18:00:01;23.60;61.80
1083;DHT22;530;51.448;7.238;2022-08-07T18:02:42;23.50;61.90
1083;DHT22;530;51.448;7.238;2022-08-07T18:05:35;23.40;63.00
1083;DHT22;530;51.448;7.238;2022-08-07T18:08:25;23.40;63.90
1083;DHT22;530;51.448;7.238;2022-08-07T18:11:09;23.30;64.90
1083;DHT22;530;51.448;7.238;2022-08-07T18:16:25;23.30;65.60
1083;DHT22;530;51.448;7.238;2022-08-07T18:18:57;23.20;66.00
1083;DHT22;530;51.448;7.238;2022-08-07T18:21:39;23.20;65.20
1083;DHT22;530;51.448;7.238;2022-08-07T18:24:35;23.20;66.00
1083;DHT22;530;51.448;7.238;2022-08-07T18:30:11;23.10;66.20
1083;DHT22;530;51.448;7.238;2022-08-07T18:38:59;23.00;66.50
1083;DHT22;530;51.448;7.238;2022-08-07T18:44:50;22.80;67.80
1083;DHT22;530;51.448;7.238;2022-08-07T18:47:53;22.70;68.40
1083;DHT22;530;51.448;7.238;2022-08-07T18:53:15;22.60;69.60
1083;DHT22;530;51.448;7.238;2022-08-07T19:06:52;22.30;72.10
1083;DHT22;530;51.448;7.238;2022-08-07T19:09:43;22.20;72.50
1083;DHT22;530;51.448;7.238;2022-08-07T19:20:58;22.00;74.50
1083;DHT22;530;51.448;7.238;2022-08-07T19:23:38;21.90;74.90
1083;DHT22;530;51.448;7.238;2022-08-07T19:26:10;21.80;76.20
1083;DHT22;530;51.448;7.238;2022-08-07T19:28:42;21.80;76.90
1083;DHT22;530;51.448;7.238;2022-08-07T19:33:55;21.60;77.80
1083;DHT22;530;51.448;7.238;2022-08-07T19:36:24;21.50;78.10
1083;DHT22;530;51.448;7.238;2022-08-07T19:38:53;21.50;78.50
1083;DHT22;530;51.448;7.238;2022-08-07T19:41:26;21.40;78.90
1083;DHT22;530;51.448;7.238;2022-08-07T19:43:56;21.40;79.60
1083;DHT22;530;51.448;7.238;2022-08-07T19:46:28;21.30;80.80
1083;DHT22;530;51.448;7.238;2022-08-07T19:49:02;21.30;81.00
1083;DHT22;530;51.448;7.238;2022-08-07T19:51:34;21.30;82.00
1083;DHT22;530;51.448;7.238;2022-08-07T19:54:03;21.30;82.50
1083;DHT22;530;51.448;7.238;2022-08-07T19:56:32;21.20;81.90
1083;DHT22;530;51.448;7.238;2022-08-07T19:59:02;21.30;82.50
1083;DHT22;530;51.448;7.238;2022-08-07T20:01:29;21.30;83.10
1083;DHT22;530;51.448;7.238;2022-08-07T20:03:57;21.30;82.80
1083;DHT22;530;51.448;7.238;2022-08-07T20:06:28;21.20;83.00
1083;DHT22;530;51.448;7.238;2022-08-07T20:08:56;21.20;83.20
1083;DHT22;530;51.448;7.238;2022-08-07T20:11:28;21.10;84.30
1083;DHT22;530;51.448;7.238;2022-08-07T20:13:56;21.10;85.80
1083;DHT22;530;51.448;7.238;2022-08-07T20:16:28;20.90;85.90